createdAt,value
2022-09-14T00:00:27.530Z,23.93
2022-09-14T00:02:27.627Z,23.93
2022-09-14T00:04:27.596Z,23.93
2022-09-14T00:06:27.545Z,23.96
2022-09-14T00:08:27.427Z,23.90
2022-09-14T00:10:27.543Z,23.91
2022-09-14T00:12:27.580Z,23.98
2022-09-14T00:14:27.601Z,23.82
2022-09-14T00:16:27.583Z,23.88
2022-09-14T00:18:27.480Z,23.91
2022-09-14T00:20:27.555Z,23.90
2022-09-14T00:22:27.524Z,23.84
2022-09-14T00:24:27.579Z,23.89
2022-09-14T00:26:27.475Z,23.86
2022-09-14T00:28:27.594Z,23.90
2022-09-14T00:30:27.564Z,23.86
2022-09-14T00:32:27.589Z,23.87
2022-09-14T00:34:27.558Z,23.82
2022-09-14T00:36:27.580Z,23.90
2022-09-14T00:38:27.590Z,23.86
2022-09-14T00:40:27.510Z,23.93
2022-09-14T00:42:27.581Z,23.94
2022-09-14T00:44:27.653Z,23.84
2022-09-14T00:46:27.652Z,23.91
2022-09-14T00:48:27.508Z,23.88
2022-09-14T00:50:27.572Z,23.81
2022-09-14T00:52:27.572Z,23.83
2022-09-14T00:54:27.595Z,23.81
2022-09-14T00:56:27.599Z,23.83
2022-09-14T00:58:27.619Z,23.91
2022-09-14T01:00:27.614Z,23.81
2022-09-14T01:02:27.724Z,23.84
2022-09-14T01:04:27.496Z,23.84
2022-09-14T01:06:27.659Z,23.81
2022-09-14T01:08:27.621Z,23.82
2022-09-14T01:10:27.563Z,23.81
2022-09-14T01:12:27.642Z,23.81
2022-09-14T01:14:27.558Z,23.89
2022-09-14T01:16:27.674Z,23.81
2022-09-14T01:18:27.499Z,23.81
2022-09-14T01:20:27.625Z,23.81
2022-09-14T01:22:27.622Z,23.81
2022-09-14T01:24:27.636Z,23.73
2022-09-14T01:26:27.486Z,23.83
2022-09-14T01:28:27.571Z,23.81
2022-09-14T01:30:27.640Z,23.79
2022-09-14T01:32:27.698Z,23.81
2022-09-14T01:34:27.622Z,23.81
2022-09-14T01:36:27.609Z,23.79
2022-09-14T01:38:27.674Z,23.79
2022-09-14T01:40:27.716Z,23.82
2022-09-14T01:42:27.645Z,23.75
2022-09-14T01:44:27.723Z,23.73
2022-09-14T01:46:27.649Z,23.79
2022-09-14T01:48:27.657Z,23.75
2022-09-14T01:50:27.579Z,23.72
2022-09-14T01:52:27.682Z,23.75
2022-09-14T01:54:27.666Z,23.76
2022-09-14T01:56:27.732Z,23.77
2022-09-14T01:58:27.587Z,23.75
2022-09-14T02:00:27.630Z,23.77
2022-09-14T02:02:27.798Z,23.70
2022-09-14T02:04:27.616Z,23.79
2022-09-14T02:06:27.645Z,23.81
2022-09-14T02:08:27.685Z,23.73
2022-09-14T02:10:27.677Z,23.72
2022-09-14T02:12:27.690Z,23.81
2022-09-14T02:14:27.754Z,23.73
2022-09-14T02:16:27.601Z,23.81
2022-09-14T02:18:27.662Z,23.65
2022-09-14T02:20:27.702Z,23.73
2022-09-14T02:22:27.704Z,23.69
2022-09-14T02:24:27.683Z,23.70
2022-09-14T02:26:27.624Z,23.70
2022-09-14T02:28:27.713Z,23.73
2022-09-14T02:30:27.481Z,23.68
2022-09-14T02:32:27.766Z,23.72
2022-09-14T02:34:27.742Z,23.77
2022-09-14T02:36:27.668Z,23.72
2022-09-14T02:38:27.659Z,23.67
2022-09-14T02:40:27.749Z,23.66
2022-09-14T02:42:27.709Z,23.69
2022-09-14T02:44:27.703Z,23.67
2022-09-14T02:46:27.721Z,23.72
2022-09-14T02:48:27.758Z,23.66
2022-09-14T02:50:27.766Z,23.69
2022-09-14T02:52:27.764Z,23.68
2022-09-14T02:54:27.686Z,23.65
2022-09-14T02:56:27.721Z,23.67
2022-09-14T02:58:27.760Z,23.65
2022-09-14T03:00:27.754Z,23.67
2022-09-14T03:02:27.856Z,23.72
2022-09-14T03:04:27.843Z,23.75
2022-09-14T03:06:27.738Z,23.73
2022-09-14T03:08:27.745Z,23.68
2022-09-14T03:10:27.826Z,23.63
2022-09-14T03:12:27.718Z,23.66
2022-09-14T03:14:27.754Z,23.69
2022-09-14T03:16:27.781Z,23.63
2022-09-14T03:18:27.763Z,23.69
2022-09-14T03:20:27.731Z,23.63
2022-09-14T03:22:27.603Z,23.62
2022-09-14T03:24:27.777Z,23.66
2022-09-14T03:26:27.741Z,23.62
2022-09-14T03:28:27.768Z,23.58
2022-09-14T03:30:27.698Z,23.63
2022-09-14T03:32:27.794Z,23.63
2022-09-14T03:34:27.750Z,23.63
2022-09-14T03:36:27.775Z,23.72
2022-09-14T03:38:27.694Z,23.63
2022-09-14T03:40:27.858Z,23.57
2022-09-14T03:42:27.739Z,23.66
2022-09-14T03:44:27.791Z,23.62
2022-09-14T03:46:27.872Z,23.53
2022-09-14T03:48:27.841Z,23.55
2022-09-14T03:50:27.770Z,23.63
2022-09-14T03:52:27.797Z,23.57
2022-09-14T03:54:27.754Z,23.59
2022-09-14T03:56:27.662Z,23.53
2022-09-14T03:58:27.865Z,23.61
2022-09-14T04:00:27.836Z,23.34
2022-09-14T04:02:27.835Z,23.33
2022-09-14T04:04:27.805Z,23.31
2022-09-14T04:06:27.815Z,23.34
2022-09-14T04:08:27.796Z,23.33
2022-09-14T04:10:27.818Z,23.29
2022-09-14T04:12:27.898Z,23.29
2022-09-14T04:14:27.752Z,23.26
2022-09-14T04:16:27.829Z,23.34
2022-09-14T04:18:27.877Z,23.27
2022-09-14T04:20:27.770Z,23.26
2022-09-14T04:22:27.850Z,23.26
2022-09-14T04:24:30.399Z,23.25
2022-09-14T04:26:27.815Z,23.26
2022-09-14T04:28:27.748Z,23.22
2022-09-14T04:30:27.821Z,23.37
2022-09-14T04:32:32.104Z,23.43
2022-09-14T04:34:27.851Z,23.50
2022-09-14T04:36:27.846Z,23.52
2022-09-14T04:38:27.703Z,23.58
2022-09-14T04:40:27.926Z,23.41
2022-09-14T04:42:27.852Z,23.51
2022-09-14T04:44:27.854Z,23.53
2022-09-14T04:46:27.914Z,23.53
2022-09-14T04:48:27.865Z,23.48
2022-09-14T04:50:27.793Z,23.49
2022-09-14T04:52:27.829Z,23.49
2022-09-14T04:54:27.822Z,23.46
2022-09-14T04:56:27.809Z,23.47
2022-09-14T04:58:27.878Z,23.49
2022-09-14T05:00:27.876Z,23.50
2022-09-14T05:02:27.935Z,23.51
2022-09-14T05:04:27.917Z,23.47
2022-09-14T05:06:27.983Z,23.43
2022-09-14T05:08:27.850Z,23.48
2022-09-14T05:10:27.890Z,23.47
2022-09-14T05:12:27.885Z,23.47
2022-09-14T05:14:27.878Z,23.44
2022-09-14T05:16:27.974Z,23.47
2022-09-14T05:18:27.753Z,23.47
2022-09-14T05:20:27.892Z,23.49
2022-09-14T05:22:27.925Z,23.48
2022-09-14T05:24:27.785Z,23.51
2022-09-14T05:26:27.990Z,23.45
2022-09-14T05:28:27.792Z,23.45
2022-09-14T05:30:27.924Z,23.52
2022-09-14T05:32:27.854Z,23.42
2022-09-14T05:34:27.934Z,23.48
2022-09-14T05:36:27.858Z,23.49
2022-09-14T05:38:27.928Z,23.43
2022-09-14T05:40:28.000Z,23.45
2022-09-14T05:42:27.933Z,23.40
2022-09-14T05:44:27.829Z,23.43
2022-09-14T05:46:27.993Z,23.45
2022-09-14T05:48:27.895Z,23.48
2022-09-14T05:50:27.815Z,23.44
2022-09-14T05:52:27.942Z,23.45
2022-09-14T05:54:27.769Z,23.47
2022-09-14T05:56:27.943Z,23.49
2022-09-14T05:58:27.908Z,23.53
2022-09-14T06:00:27.983Z,23.50
2022-09-14T06:02:28.067Z,23.51
2022-09-14T06:04:27.882Z,23.59
2022-09-14T06:06:27.862Z,23.53
2022-09-14T06:08:28.094Z,23.50
2022-09-14T06:10:28.089Z,23.50
2022-09-14T06:12:27.966Z,23.50
2022-09-14T06:14:27.952Z,23.53
2022-09-14T06:16:27.998Z,23.47
2022-09-14T06:18:27.921Z,23.51
2022-09-14T06:20:27.905Z,23.53
2022-09-14T06:22:27.903Z,23.53
2022-09-14T06:24:27.951Z,23.53
2022-09-14T06:26:27.979Z,23.54
2022-09-14T06:28:27.973Z,23.57
2022-09-14T06:30:27.972Z,23.61
2022-09-14T06:32:27.945Z,23.51
2022-09-14T06:34:27.983Z,23.52
2022-09-14T06:36:27.958Z,23.48
2022-09-14T06:38:27.963Z,23.50
2022-09-14T06:40:28.004Z,23.47
2022-09-14T06:42:28.049Z,23.50
2022-09-14T06:44:27.910Z,23.54
2022-09-14T06:46:27.884Z,23.50
2022-09-14T06:48:28.008Z,23.53
2022-09-14T06:50:28.030Z,23.50
2022-09-14T06:52:31.697Z,23.51
2022-09-14T06:54:27.855Z,23.50
2022-09-14T06:56:27.993Z,23.56
2022-09-14T06:58:28.002Z,23.53
2022-09-14T07:00:27.942Z,23.51
2022-09-14T07:02:27.939Z,23.51
2022-09-14T07:04:28.006Z,23.53
2022-09-14T07:06:28.007Z,23.53
2022-09-14T07:08:27.948Z,23.53
2022-09-14T07:10:27.929Z,23.50
2022-09-14T07:12:27.989Z,23.55
2022-09-14T07:14:32.057Z,23.57
2022-09-14T07:16:28.032Z,23.56
2022-09-14T07:18:28.087Z,23.57
2022-09-14T07:20:27.914Z,23.59
2022-09-14T07:22:28.041Z,23.55
2022-09-14T07:24:28.051Z,23.78
2022-09-14T07:26:28.050Z,23.77
2022-09-14T07:28:28.006Z,23.81
2022-09-14T07:30:28.153Z,23.89
2022-09-14T07:32:28.057Z,23.82
2022-09-14T07:34:28.019Z,23.86
2022-09-14T07:36:31.498Z,23.87
2022-09-14T07:38:48.505Z,23.88
2022-09-14T07:40:28.152Z,23.81
2022-09-14T07:42:28.068Z,23.88
2022-09-14T07:44:28.062Z,23.79
2022-09-14T07:46:28.097Z,23.77
2022-09-14T07:48:28.087Z,23.70
2022-09-14T07:50:28.058Z,23.80
2022-09-14T07:52:28.010Z,23.75
2022-09-14T07:54:28.145Z,23.69
2022-09-14T07:56:28.136Z,23.66
2022-09-14T07:58:27.988Z,23.60
2022-09-14T08:00:28.106Z,23.70
2022-09-14T08:02:28.119Z,23.91
2022-09-14T08:04:28.038Z,24.23
2022-09-14T08:06:28.090Z,24.24
2022-09-14T08:08:28.078Z,24.35
2022-09-14T08:10:28.132Z,24.38
2022-09-14T08:12:28.048Z,24.37
2022-09-14T08:14:28.023Z,24.51
2022-09-14T08:16:28.141Z,24.44
2022-09-14T08:18:28.059Z,24.43
2022-09-14T08:20:28.117Z,24.53
2022-09-14T08:22:28.095Z,24.52
2022-09-14T08:24:28.133Z,24.51
2022-09-14T08:26:28.058Z,24.62
2022-09-14T08:28:28.114Z,24.46
2022-09-14T08:30:28.172Z,24.44
2022-09-14T08:32:28.109Z,24.46
2022-09-14T08:34:27.956Z,24.58
2022-09-14T08:36:28.110Z,24.68
2022-09-14T08:38:28.016Z,24.66
2022-09-14T08:40:28.082Z,24.66
2022-09-14T08:42:28.003Z,24.60
2022-09-14T08:44:28.153Z,24.73
2022-09-14T08:46:28.618Z,24.64
2022-09-14T08:48:28.099Z,24.62
2022-09-14T08:50:28.151Z,24.61
2022-09-14T08:52:27.952Z,24.62
2022-09-14T08:54:28.114Z,24.62
2022-09-14T08:56:28.115Z,24.64
2022-09-14T08:58:28.101Z,24.47
2022-09-14T09:00:28.122Z,24.51
2022-09-14T09:02:28.158Z,24.40
2022-09-14T09:04:28.068Z,24.33
2022-09-14T09:06:28.114Z,24.24
2022-09-14T09:08:28.077Z,24.35
2022-09-14T09:10:28.053Z,24.27
2022-09-14T09:12:28.199Z,24.30
2022-09-14T09:14:28.187Z,24.33
2022-09-14T09:16:28.135Z,24.28
2022-09-14T09:18:28.087Z,24.38
2022-09-14T09:20:28.033Z,24.47
2022-09-14T09:22:28.209Z,24.38
2022-09-14T09:24:28.183Z,24.44
2022-09-14T09:26:28.126Z,24.46
2022-09-14T09:28:28.083Z,24.51
2022-09-14T09:30:28.184Z,24.40
2022-09-14T09:32:28.231Z,24.51
2022-09-14T09:34:28.005Z,24.51
2022-09-14T09:36:28.163Z,24.38
2022-09-14T09:38:28.203Z,24.52
2022-09-14T09:40:28.175Z,24.53
2022-09-14T09:42:28.185Z,24.55
2022-09-14T09:44:28.055Z,24.55
2022-09-14T09:46:28.293Z,24.81
2022-09-14T09:48:28.211Z,25.10
2022-09-14T09:50:28.191Z,24.77
2022-09-14T09:52:28.201Z,24.78
2022-09-14T09:54:28.239Z,24.54
2022-09-14T09:56:28.208Z,24.55
2022-09-14T09:58:28.220Z,24.62
2022-09-14T10:00:28.216Z,24.62
2022-09-14T10:02:28.325Z,24.60
2022-09-14T10:04:28.210Z,24.69
2022-09-14T10:06:28.222Z,24.66
2022-09-14T10:08:28.224Z,24.73
2022-09-14T10:10:28.197Z,24.68
2022-09-14T10:12:28.095Z,24.59
2022-09-14T10:14:28.155Z,24.58
2022-09-14T10:16:28.140Z,24.60
2022-09-14T10:18:28.110Z,24.64
2022-09-14T10:20:28.228Z,24.62
2022-09-14T10:22:28.236Z,24.69
2022-09-14T10:24:28.195Z,24.87
2022-09-14T10:26:28.246Z,25.06
2022-09-14T10:28:28.151Z,25.05
2022-09-14T10:30:28.303Z,25.14
2022-09-14T10:32:28.203Z,25.04
2022-09-14T10:34:28.211Z,24.87
2022-09-14T10:36:28.264Z,24.98
2022-09-14T10:38:28.225Z,25.03
2022-09-14T10:40:28.343Z,24.98
2022-09-14T10:42:28.143Z,24.95
2022-09-14T10:44:28.266Z,25.13
2022-09-14T10:46:28.274Z,25.29
2022-09-14T10:48:28.266Z,25.09
2022-09-14T10:50:28.176Z,25.31
2022-09-14T10:52:28.326Z,25.23
2022-09-14T10:54:28.235Z,25.23
2022-09-14T10:56:28.235Z,25.54
2022-09-14T10:58:28.297Z,26.24
2022-09-14T11:00:28.114Z,26.22
2022-09-14T11:02:28.458Z,27.12
2022-09-14T11:04:28.153Z,26.84
2022-09-14T11:06:28.136Z,26.70
2022-09-14T11:08:28.275Z,27.54
2022-09-14T11:10:28.349Z,26.13
2022-09-14T11:12:28.240Z,27.68
2022-09-14T11:14:28.292Z,26.31
2022-09-14T11:16:28.266Z,27.77
2022-09-14T11:18:28.326Z,27.64
2022-09-14T11:20:28.254Z,27.22
2022-09-14T11:22:28.342Z,27.62
2022-09-14T11:24:28.143Z,26.08
2022-09-14T11:26:28.309Z,27.70
2022-09-14T11:28:28.282Z,26.46
2022-09-14T11:30:28.361Z,27.55
2022-09-14T11:32:28.176Z,27.03
2022-09-14T11:34:28.256Z,27.88
2022-09-14T11:36:28.320Z,25.81
2022-09-14T11:38:28.338Z,25.99
2022-09-14T11:40:28.382Z,27.67
2022-09-14T11:42:28.331Z,27.78
2022-09-14T11:44:28.220Z,26.09
2022-09-14T11:46:28.344Z,25.80
2022-09-14T11:48:42.385Z,27.91
2022-09-14T11:50:28.250Z,27.94
2022-09-14T11:52:28.332Z,25.82
2022-09-14T11:54:28.284Z,27.58
2022-09-14T11:56:28.357Z,27.83
2022-09-14T11:58:28.363Z,27.79
2022-09-14T12:00:28.372Z,27.88
2022-09-14T12:02:28.297Z,25.80
2022-09-14T12:04:28.320Z,27.53
2022-09-14T12:06:28.349Z,25.81
2022-09-14T12:08:28.432Z,27.31
2022-09-14T12:10:28.280Z,26.04
2022-09-14T12:12:28.369Z,25.90
2022-09-14T12:14:28.359Z,25.60
2022-09-14T12:16:32.724Z,25.46
2022-09-14T12:18:28.416Z,25.49
2022-09-14T12:20:28.392Z,25.39
2022-09-14T12:22:28.419Z,25.53
2022-09-14T12:24:28.383Z,26.09
2022-09-14T12:26:28.356Z,26.60
2022-09-14T12:28:28.405Z,26.67
2022-09-14T12:30:28.363Z,26.92
2022-09-14T12:32:28.390Z,26.88
2022-09-14T12:34:28.378Z,26.55
2022-09-14T12:36:28.394Z,26.14
2022-09-14T12:38:28.405Z,25.76
2022-09-14T12:40:28.406Z,25.60
2022-09-14T12:42:28.220Z,25.63
2022-09-14T12:44:28.284Z,25.43
2022-09-14T12:46:28.473Z,25.36
2022-09-14T12:48:28.435Z,25.42
2022-09-14T12:50:28.304Z,25.46
2022-09-14T12:52:28.453Z,25.37
2022-09-14T12:54:28.459Z,25.26
2022-09-14T12:56:28.467Z,25.12
2022-09-14T12:58:28.405Z,25.13
2022-09-14T13:00:28.430Z,25.13
2022-09-14T13:02:28.684Z,24.98
2022-09-14T13:04:28.399Z,25.12
2022-09-14T13:06:28.314Z,25.05
2022-09-14T13:08:28.457Z,24.83
2022-09-14T13:10:28.307Z,24.96
2022-09-14T13:12:28.353Z,24.95
2022-09-14T13:14:28.381Z,24.99
2022-09-14T13:16:28.611Z,24.95
2022-09-14T13:18:28.652Z,24.95
2022-09-14T13:20:28.441Z,24.90
2022-09-14T13:22:28.444Z,24.85
2022-09-14T13:24:28.453Z,24.82
2022-09-14T13:26:28.437Z,24.85
2022-09-14T13:28:28.444Z,24.85
2022-09-14T13:30:28.391Z,24.87
2022-09-14T13:32:28.471Z,24.81
2022-09-14T13:34:28.425Z,24.81
2022-09-14T13:36:28.512Z,24.78
2022-09-14T13:38:28.314Z,24.76
2022-09-14T13:40:28.558Z,24.76
2022-09-14T13:42:28.501Z,24.74
2022-09-14T13:44:28.545Z,24.73
2022-09-14T13:46:28.595Z,24.78
2022-09-14T13:48:28.661Z,24.73
2022-09-14T13:50:28.453Z,24.68
2022-09-14T13:52:43.557Z,24.67
2022-09-14T13:54:28.518Z,24.67
2022-09-14T13:56:28.482Z,24.66
2022-09-14T13:58:31.506Z,24.67
2022-09-14T14:00:28.437Z,24.66
2022-09-14T14:02:28.440Z,24.64
2022-09-14T14:04:28.322Z,24.66
2022-09-14T14:06:28.459Z,24.15
2022-09-14T14:08:28.538Z,24.52
2022-09-14T14:10:28.409Z,24.68
2022-09-14T14:12:28.556Z,24.60
2022-09-14T14:14:31.299Z,24.66
2022-09-14T14:16:28.590Z,24.61
2022-09-14T14:18:28.508Z,24.66
2022-09-14T14:20:28.502Z,24.64
2022-09-14T14:22:28.540Z,24.66
2022-09-14T14:24:28.530Z,24.66
2022-09-14T14:26:28.474Z,24.60
2022-09-14T14:28:28.554Z,24.64
2022-09-14T14:30:28.535Z,24.60
2022-09-14T14:32:28.498Z,24.54
2022-09-14T14:34:28.493Z,24.55
2022-09-14T14:36:28.526Z,24.53
2022-09-14T14:38:28.400Z,24.57
2022-09-14T14:40:28.437Z,24.54
2022-09-14T14:42:28.325Z,24.59
2022-09-14T14:44:28.505Z,24.59
2022-09-14T14:46:28.517Z,24.61
2022-09-14T14:48:28.548Z,24.62
2022-09-14T14:50:28.546Z,24.58
2022-09-14T14:52:28.539Z,24.52
2022-09-14T14:54:28.581Z,24.61
2022-09-14T14:56:28.623Z,24.57
2022-09-14T14:58:28.547Z,24.66
2022-09-14T15:00:28.481Z,24.70
2022-09-14T15:02:28.460Z,24.67
2022-09-14T15:04:28.569Z,24.64
2022-09-14T15:06:28.533Z,24.73
2022-09-14T15:08:28.542Z,24.79
2022-09-14T15:10:28.449Z,24.71
2022-09-14T15:12:28.476Z,24.72
2022-09-14T15:14:28.620Z,24.66
2022-09-14T15:16:28.542Z,24.81
2022-09-14T15:18:28.613Z,24.87
2022-09-14T15:20:28.612Z,24.96
2022-09-14T15:22:28.607Z,25.01
2022-09-14T15:24:28.599Z,25.06
2022-09-14T15:26:28.618Z,25.04
2022-09-14T15:28:28.589Z,25.07
2022-09-14T15:30:28.569Z,25.07
2022-09-14T15:32:28.636Z,24.92
2022-09-14T15:34:28.797Z,24.95
2022-09-14T15:36:28.830Z,24.84
2022-09-14T15:38:28.619Z,24.72
2022-09-14T15:40:28.728Z,24.76
2022-09-14T15:42:28.821Z,24.76
2022-09-14T15:44:28.535Z,24.79
2022-09-14T15:46:28.631Z,24.69
2022-09-14T15:48:28.624Z,24.68
2022-09-14T15:50:28.619Z,24.66
2022-09-14T15:52:28.618Z,24.65
2022-09-14T15:54:28.576Z,24.57
2022-09-14T15:56:28.605Z,24.55
2022-09-14T15:58:28.631Z,24.51
2022-09-14T16:00:28.525Z,24.55
2022-09-14T16:02:28.697Z,24.62
2022-09-14T16:04:28.669Z,24.61
2022-09-14T16:06:28.694Z,24.51
2022-09-14T16:08:28.708Z,24.57
2022-09-14T16:10:28.611Z,24.53
2022-09-14T16:12:28.603Z,24.54
2022-09-14T16:14:28.573Z,24.51
2022-09-14T16:16:28.703Z,24.47
2022-09-14T16:18:28.773Z,24.48
2022-09-14T16:20:28.630Z,24.48
2022-09-14T16:22:28.537Z,24.49
2022-09-14T16:24:28.525Z,24.47
2022-09-14T16:26:28.647Z,24.46
2022-09-14T16:28:28.704Z,24.44
2022-09-14T16:30:28.664Z,24.40
2022-09-14T16:32:28.650Z,24.46
2022-09-14T16:34:28.558Z,24.55
2022-09-14T16:36:28.561Z,24.51
2022-09-14T16:38:28.486Z,24.53
2022-09-14T16:40:28.692Z,24.50
2022-09-14T16:42:28.682Z,24.53
2022-09-14T16:44:28.645Z,24.51
2022-09-14T16:46:28.678Z,24.50
2022-09-14T16:48:28.679Z,24.44
2022-09-14T16:50:28.642Z,24.43
2022-09-14T16:52:28.678Z,24.49
2022-09-14T16:54:28.663Z,24.47
2022-09-14T16:56:28.615Z,24.51
2022-09-14T16:58:28.683Z,24.40
2022-09-14T17:00:28.611Z,24.46
2022-09-14T17:02:28.675Z,24.43
2022-09-14T17:04:28.723Z,24.43
2022-09-14T17:06:28.670Z,24.43
2022-09-14T17:08:28.538Z,24.36
2022-09-14T17:10:28.698Z,24.37
2022-09-14T17:12:28.662Z,24.40
2022-09-14T17:14:28.631Z,24.38
2022-09-14T17:16:28.819Z,24.37
2022-09-14T17:18:28.691Z,24.38
2022-09-14T17:20:28.598Z,24.37
2022-09-14T17:22:28.671Z,24.37
2022-09-14T17:24:28.726Z,24.27
2022-09-14T17:26:28.639Z,24.29
2022-09-14T17:28:28.706Z,24.32
2022-09-14T17:30:28.708Z,24.37
2022-09-14T17:32:28.703Z,24.34
2022-09-14T17:34:28.625Z,24.28
2022-09-14T17:36:28.719Z,24.32
2022-09-14T17:38:28.727Z,24.34
2022-09-14T17:40:28.802Z,24.27
2022-09-14T17:42:28.607Z,24.34
2022-09-14T17:44:28.692Z,24.25
2022-09-14T17:46:28.767Z,24.21
2022-09-14T17:48:29.134Z,24.24
2022-09-14T17:50:28.751Z,24.37
2022-09-14T17:52:29.057Z,24.25
2022-09-14T17:54:28.929Z,24.21
2022-09-14T17:56:28.712Z,24.20
2022-09-14T17:58:28.659Z,24.27
2022-09-14T18:00:28.941Z,24.22
2022-09-14T18:02:29.140Z,24.27
2022-09-14T18:04:28.638Z,24.24
2022-09-14T18:06:29.063Z,24.23
2022-09-14T18:08:28.715Z,24.23
2022-09-14T18:10:28.873Z,24.23
2022-09-14T18:12:28.798Z,24.28
2022-09-14T18:14:28.746Z,24.23
2022-09-14T18:16:28.829Z,24.25
2022-09-14T18:18:28.756Z,24.18
2022-09-14T18:20:28.692Z,24.19
2022-09-14T18:22:28.856Z,24.15
2022-09-14T18:24:28.856Z,24.19
2022-09-14T18:26:28.785Z,24.21
2022-09-14T18:28:28.673Z,24.15
2022-09-14T18:30:28.674Z,24.19
2022-09-14T18:32:28.794Z,24.20
2022-09-14T18:34:28.766Z,24.19
2022-09-14T18:36:29.645Z,24.17
2022-09-14T18:38:28.857Z,24.16
2022-09-14T18:40:28.824Z,24.15
2022-09-14T18:42:28.788Z,24.15
2022-09-14T18:44:28.809Z,24.25
2022-09-14T18:46:28.850Z,24.13
2022-09-14T18:48:28.701Z,24.12
2022-09-14T18:50:28.793Z,24.19
2022-09-14T18:52:28.788Z,24.11
2022-09-14T18:54:28.809Z,24.14
2022-09-14T18:56:28.812Z,24.12
2022-09-14T18:58:28.732Z,24.12
2022-09-14T19:00:28.769Z,24.11
2022-09-14T19:02:28.908Z,24.12
2022-09-14T19:04:28.788Z,24.20
2022-09-14T19:06:28.828Z,24.10
2022-09-14T19:08:28.810Z,24.10
2022-09-14T19:10:28.842Z,24.18
2022-09-14T19:12:28.829Z,24.11
2022-09-14T19:14:28.735Z,24.12
2022-09-14T19:16:28.883Z,24.10
2022-09-14T19:18:28.735Z,24.11
2022-09-14T19:20:48.641Z,24.07
2022-09-14T19:22:28.773Z,24.10
2022-09-14T19:24:28.835Z,24.09
2022-09-14T19:26:28.872Z,24.09
2022-09-14T19:28:28.849Z,23.96
2022-09-14T19:30:28.843Z,23.96
2022-09-14T19:32:28.763Z,24.00
2022-09-14T19:34:28.878Z,24.06
2022-09-14T19:36:28.839Z,24.05
2022-09-14T19:38:28.735Z,24.12
2022-09-14T19:40:28.793Z,24.10
2022-09-14T19:42:28.896Z,24.04
2022-09-14T19:44:28.871Z,24.02
2022-09-14T19:46:28.909Z,24.08
2022-09-14T19:48:28.791Z,24.05
2022-09-14T19:50:28.846Z,24.02
2022-09-14T19:52:28.871Z,24.07
2022-09-14T19:54:28.886Z,24.00
2022-09-14T19:56:28.915Z,24.10
2022-09-14T19:58:28.890Z,24.00
2022-09-14T20:00:28.747Z,24.04
2022-09-14T20:02:28.895Z,24.08
2022-09-14T20:04:28.731Z,24.00
2022-09-14T20:06:28.876Z,24.01
2022-09-14T20:08:28.881Z,24.01
2022-09-14T20:10:28.957Z,23.98
2022-09-14T20:12:28.819Z,23.98
2022-09-14T20:14:28.800Z,23.98
2022-09-14T20:16:29.047Z,24.01
2022-09-14T20:18:28.900Z,23.97
2022-09-14T20:20:28.876Z,23.98
2022-09-14T20:22:28.759Z,23.96
2022-09-14T20:24:28.893Z,23.98
2022-09-14T20:26:28.835Z,23.96
2022-09-14T20:28:28.898Z,24.02
2022-09-14T20:30:28.884Z,23.94
2022-09-14T20:32:28.897Z,23.96
2022-09-14T20:34:28.833Z,23.96
2022-09-14T20:36:28.765Z,23.95
2022-09-14T20:38:28.819Z,23.93
2022-09-14T20:40:28.932Z,24.01
2022-09-14T20:42:29.040Z,23.81
2022-09-14T20:44:28.935Z,23.96
2022-09-14T20:46:29.097Z,23.91
2022-09-14T20:48:28.996Z,24.00
2022-09-14T20:50:28.821Z,23.97
2022-09-14T20:52:28.951Z,23.94
2022-09-14T20:54:28.831Z,23.94
2022-09-14T20:56:28.955Z,23.88
2022-09-14T20:58:28.989Z,23.93
2022-09-14T21:00:28.818Z,23.91
2022-09-14T21:02:29.011Z,23.95
2022-09-14T21:04:28.888Z,23.93
2022-09-14T21:06:28.954Z,23.96
2022-09-14T21:08:28.951Z,23.88
2022-09-14T21:10:29.612Z,23.82
2022-09-14T21:12:29.298Z,23.86
2022-09-14T21:14:28.852Z,23.86
2022-09-14T21:16:28.982Z,23.84
2022-09-14T21:18:28.984Z,23.82
2022-09-14T21:20:28.968Z,23.84
2022-09-14T21:22:28.947Z,23.94
2022-09-14T21:24:28.985Z,23.86
2022-09-14T21:26:29.318Z,23.91
2022-09-14T21:28:28.902Z,23.84
2022-09-14T21:30:29.250Z,23.81
2022-09-14T21:32:28.960Z,23.89
2022-09-14T21:34:29.004Z,23.91
2022-09-14T21:36:28.874Z,23.89
2022-09-14T21:38:29.021Z,23.81
2022-09-14T21:40:29.049Z,23.82
2022-09-14T21:42:28.865Z,23.81
2022-09-14T21:44:28.994Z,23.83
2022-09-14T21:46:29.056Z,23.80
2022-09-14T21:48:28.982Z,23.81
2022-09-14T21:50:28.991Z,23.89
2022-09-14T21:52:28.935Z,23.81
2022-09-14T21:54:29.003Z,23.81
2022-09-14T21:56:29.076Z,23.88
2022-09-14T21:58:28.878Z,23.80
2022-09-14T22:00:30.892Z,23.72
2022-09-14T22:02:29.093Z,23.81
2022-09-14T22:04:28.938Z,23.75
2022-09-14T22:06:28.923Z,23.75
2022-09-14T22:08:29.024Z,23.77
2022-09-14T22:10:29.008Z,23.77
2022-09-14T22:12:28.857Z,23.81
2022-09-14T22:14:28.927Z,23.80
2022-09-14T22:16:28.882Z,23.72
2022-09-14T22:18:29.051Z,23.77
2022-09-14T22:20:29.035Z,23.79
2022-09-14T22:22:29.127Z,23.78
2022-09-14T22:24:32.296Z,23.78
2022-09-14T22:26:29.040Z,23.68
2022-09-14T22:28:29.021Z,23.70
2022-09-14T22:30:29.091Z,23.79
2022-09-14T22:32:29.068Z,23.73
2022-09-14T22:34:29.040Z,23.76
2022-09-14T22:36:29.026Z,23.73
2022-09-14T22:38:29.039Z,23.73
2022-09-14T22:40:29.100Z,23.80
2022-09-14T22:42:29.059Z,23.81
2022-09-14T22:44:29.066Z,23.75
2022-09-14T22:46:29.111Z,23.70
2022-09-14T22:48:29.071Z,23.72
2022-09-14T22:50:29.070Z,23.77
2022-09-14T22:52:29.096Z,23.69
2022-09-14T22:54:29.115Z,23.68
2022-09-14T22:56:29.061Z,23.72
2022-09-14T22:58:29.055Z,23.70
2022-09-14T23:00:29.087Z,23.68
2022-09-14T23:02:29.159Z,23.75
2022-09-14T23:04:29.083Z,23.65
2022-09-14T23:06:29.113Z,23.68
2022-09-14T23:08:29.081Z,23.68
2022-09-14T23:10:29.081Z,23.76
2022-09-14T23:12:29.085Z,23.73
2022-09-14T23:14:29.106Z,23.73
2022-09-14T23:16:29.119Z,23.65
2022-09-14T23:18:29.100Z,23.72
2022-09-14T23:20:29.098Z,23.65
2022-09-14T23:22:29.127Z,23.66
2022-09-14T23:24:29.077Z,23.65
2022-09-14T23:26:29.123Z,23.64
2022-09-14T23:28:28.999Z,23.59
2022-09-14T23:30:29.037Z,23.65
2022-09-14T23:32:29.069Z,23.65
2022-09-14T23:34:29.090Z,23.63
2022-09-14T23:36:29.144Z,23.62
2022-09-14T23:38:29.095Z,23.63
2022-09-14T23:40:29.184Z,23.67
2022-09-14T23:42:29.127Z,23.63
2022-09-14T23:44:29.133Z,23.62
2022-09-14T23:46:29.312Z,23.63
2022-09-14T23:48:29.124Z,23.66
2022-09-14T23:50:29.021Z,23.56
2022-09-14T23:52:29.128Z,23.59
2022-09-14T23:54:29.122Z,23.66
2022-09-14T23:56:29.138Z,23.55
2022-09-14T23:58:29.065Z,23.59
